Time;durP1;ratioP1;P1;durP2;ratioP2;P2;SDS_P1;SDS_P2;PMS_P1;PMS_P2;Temp;Humidity;BMP_temperature;BMP_pressure;BME280_temperature;BME280_humidity;BME280_pressure;Samples;Min_cycle;Max_cycle;Signal;HPM_P1;HPM_P2
2023/09/10 00:01:37;;;;;;;14.47;13.13;;;25.20;99.90;;;;;;5035437;28;20204;-75
2023/09/10 00:04:03;;;;;;;18.00;12.57;;;25.20;99.90;;;;;;5033006;28;20187;-74
2023/09/10 00:06:29;;;;;;;13.63;12.33;;;25.10;99.90;;;;;;5040300;28;20223;-74
2023/09/10 00:08:54;;;;;;;27.93;13.10;;;25.10;99.90;;;;;;5029267;28;20311;-75
2023/09/10 00:11:20;;;;;;;13.33;11.93;;;25.00;99.90;;;;;;5025392;28;20277;-75
2023/09/10 00:13:45;;;;;;;13.47;12.27;;;25.00;99.90;;;;;;5032573;28;20256;-75
2023/09/10 00:16:11;;;;;;;13.10;11.80;;;25.00;99.90;;;;;;5033932;28;20199;-74
2023/09/10 00:18:36;;;;;;;13.63;12.27;;;25.00;99.90;;;;;;5030871;28;20181;-74
2023/09/10 00:21:02;;;;;;;12.27;11.07;;;24.90;99.90;;;;;;5030282;28;20200;-75
2023/09/10 00:23:27;;;;;;;16.43;12.13;;;24.90;99.90;;;;;;5029007;28;20208;-74
2023/09/10 00:25:56;;;;;;;18.23;11.77;;;24.90;99.90;;;;;;5028910;28;20243;-76
2023/09/10 00:28:22;;;;;;;14.87;12.70;;;24.80;99.90;;;;;;5026438;28;20235;-75
2023/09/10 00:30:54;;;;;;;18.23;13.50;;;24.80;99.90;;;;;;5027031;28;20458;-74
2023/09/10 00:33:20;;;;;;;13.03;11.77;;;24.80;99.90;;;;;;5023203;28;20701;-75
2023/09/10 00:35:45;;;;;;;15.37;13.77;;;24.80;99.90;;;;;;5027112;28;20411;-74
2023/09/10 00:38:11;;;;;;;13.33;12.03;;;24.70;99.90;;;;;;5026496;28;20196;-75
2023/09/10 00:40:36;;;;;;;15.27;12.57;;;24.70;99.90;;;;;;5026427;28;20207;-75
2023/09/10 00:43:02;;;;;;;12.60;11.30;;;24.70;99.90;;;;;;5026634;28;20258;-75
2023/09/10 00:45:29;;;;;;;16.47;12.20;;;24.70;99.90;;;;;;5021993;28;20191;-75
2023/09/10 00:47:55;;;;;;;14.00;12.10;;;24.70;99.90;;;;;;5022894;28;20213;-75
2023/09/10 00:50:21;;;;;;;13.40;11.67;;;24.70;99.90;;;;;;5025428;28;20499;-74
2023/09/10 00:52:50;;;;;;;13.57;12.20;;;24.60;99.90;;;;;;5024535;28;20205;-75
2023/09/10 00:55:17;;;;;;;15.00;12.77;;;24.60;99.90;;;;;;5024221;28;20416;-74
2023/09/10 00:57:43;;;;;;;15.40;12.03;;;24.60;99.90;;;;;;5026214;28;20834;-75
2023/09/10 01:00:12;;;;;;;15.47;11.10;;;24.50;99.90;;;;;;5025350;28;20433;-75
2023/09/10 01:02:43;;;;;;;13.40;12.00;;;24.50;99.90;;;;;;5027264;28;20688;-74
2023/09/10 01:05:11;;;;;;;14.80;12.87;;;24.50;99.90;;;;;;5024820;28;20431;-74
2023/09/10 01:07:37;;;;;;;12.90;11.53;;;24.50;99.90;;;;;;5023106;28;20439;-74
2023/09/10 01:10:04;;;;;;;13.80;12.17;;;24.50;99.90;;;;;;5024171;28;20967;-74
2023/09/10 01:12:32;;;;;;;15.07;11.60;;;24.50;99.90;;;;;;5033293;28;20427;-75
2023/09/10 01:15:07;;;;;;;16.40;12.43;;;24.50;99.90;;;;;;5024732;28;20415;-75
2023/09/10 01:18:05;;;;;;;15.63;14.03;;;24.40;99.90;;;;;;5024194;28;20418;-75
2023/09/10 01:20:55;;;;;;;14.83;12.70;;;24.40;99.90;;;;;;5026672;28;21121;-75
2023/09/10 01:23:27;;;;;;;13.57;12.17;;;24.40;99.90;;;;;;5026151;28;20532;-75
2023/09/10 01:25:52;;;;;;;13.83;12.43;;;24.30;99.90;;;;;;5024364;28;20419;-75
2023/09/10 01:28:18;;;;;;;12.97;11.80;;;24.30;99.90;;;;;;5025740;28;20415;-75
2023/09/10 01:30:44;;;;;;;12.67;11.47;;;24.20;99.90;;;;;;5023197;28;20708;-75
2023/09/10 01:33:23;;;;;;;13.63;12.33;;;24.20;99.90;;;;;;5021580;28;20729;-75
2023/09/10 01:36:11;;;;;;;13.40;12.00;;;24.20;99.90;;;;;;5019813;28;20731;-74
2023/09/10 01:38:58;;;;;;;14.77;13.07;;;24.20;99.90;;;;;;5024808;28;20423;-75
2023/09/10 01:41:26;;;;;;;12.83;10.27;;;24.20;99.90;;;;;;5021113;28;20485;-75
2023/09/10 01:43:53;;;;;;;14.50;13.10;;;24.10;99.90;;;;;;5026922;28;20940;-75
2023/09/10 01:46:20;;;;;;;14.30;12.90;;;24.20;99.90;;;;;;5026201;28;20418;-75
2023/09/10 01:48:45;;;;;;;13.50;12.07;;;24.10;99.90;;;;;;5024685;28;20435;-74
2023/09/10 01:51:11;;;;;;;14.50;13.10;;;24.10;99.90;;;;;;5008627;28;20482;-75
2023/09/10 01:53:37;;;;;;;13.43;12.03;;;24.10;99.90;;;;;;5026097;28;20506;-74
2023/09/10 01:56:03;;;;;;;14.33;12.73;;;24.00;99.90;;;;;;5022648;28;20745;-74
2023/09/10 01:58:28;;;;;;;12.57;11.40;;;24.00;99.90;;;;;;5023080;28;20721;-74
2023/09/10 02:00:54;;;;;;;15.33;12.50;;;24.00;99.90;;;;;;5020821;28;20239;-74
2023/09/10 02:03:19;;;;;;;13.83;12.53;;;23.90;99.90;;;;;;5023252;28;20205;-74
2023/09/10 02:05:45;;;;;;;13.10;11.77;;;23.90;99.90;;;;;;5020810;28;20303;-74
2023/09/10 02:08:10;;;;;;;13.53;12.33;;;23.90;99.90;;;;;;5029150;28;20226;-74
2023/09/10 02:10:36;;;;;;;15.63;11.43;;;23.90;99.90;;;;;;5021236;28;20307;-74
2023/09/10 02:13:03;;;;;;;13.37;12.17;;;23.90;99.90;;;;;;5025828;28;20639;-74
2023/09/10 02:15:29;;;;;;;13.13;11.60;;;23.90;99.90;;;;;;5010664;28;20184;-74
2023/09/10 02:17:55;;;;;;;12.67;11.50;;;23.90;99.90;;;;;;5027368;28;20435;-74
2023/09/10 02:20:21;;;;;;;13.30;11.47;;;23.90;99.90;;;;;;5022872;28;20414;-74
2023/09/10 02:22:47;;;;;;;13.80;11.30;;;23.80;99.90;;;;;;5022344;28;20795;-74
2023/09/10 02:25:12;;;;;;;13.60;12.30;;;23.80;99.90;;;;;;5025540;28;20185;-74
2023/09/10 02:27:38;;;;;;;12.73;11.57;;;23.80;99.90;;;;;;5021960;28;20222;-74
2023/09/10 02:30:05;;;;;;;12.27;11.10;;;23.70;99.90;;;;;;5014203;28;22107;-74
2023/09/10 02:32:35;;;;;;;12.70;11.60;;;23.70;99.90;;;;;;5025872;28;20573;-74
2023/09/10 02:35:01;;;;;;;12.97;11.50;;;23.70;99.90;;;;;;5024489;28;20878;-74
2023/09/10 02:37:26;;;;;;;13.50;10.97;;;23.70;99.90;;;;;;5025991;28;20502;-73
2023/09/10 02:39:52;;;;;;;12.67;11.47;;;23.70;99.90;;;;;;5023975;28;20617;-74
2023/09/10 02:42:17;;;;;;;15.57;11.53;;;23.70;99.90;;;;;;5025777;28;20211;-74
2023/09/10 02:44:43;;;;;;;13.40;11.27;;;23.60;99.90;;;;;;5023945;28;20268;-74
2023/09/10 02:47:09;;;;;;;12.10;10.80;;;23.60;99.90;;;;;;5024502;28;20207;-74
2023/09/10 02:49:35;;;;;;;13.53;11.70;;;23.60;99.90;;;;;;5020126;28;20290;-74
2023/09/10 02:52:01;;;;;;;11.80;10.70;;;23.60;99.90;;;;;;5023588;28;20629;-74
2023/09/10 02:54:28;;;;;;;13.67;11.50;;;23.50;99.90;;;;;;5022053;28;20422;-74
2023/09/10 02:56:53;;;;;;;12.40;11.20;;;23.50;99.90;;;;;;5024212;28;20180;-74
2023/09/10 02:59:21;;;;;;;13.63;11.30;;;23.40;99.90;;;;;;5022453;28;20939;-74
2023/09/10 03:01:47;;;;;;;11.13;10.03;;;23.50;99.90;;;;;;5024480;28;20235;-74
2023/09/10 03:04:14;;;;;;;12.37;11.17;;;23.40;99.90;;;;;;5020865;28;20415;-74
2023/09/10 03:06:42;;;;;;;11.80;10.73;;;23.40;99.90;;;;;;5024378;28;20778;-74
2023/09/10 03:09:08;;;;;;;12.37;11.17;;;23.30;99.90;;;;;;5007248;28;20485;-74
2023/09/10 03:11:37;;;;;;;11.63;10.53;;;23.30;99.90;;;;;;5018869;28;20439;-74
2023/09/10 03:14:03;;;;;;;14.00;11.23;;;23.30;99.90;;;;;;5019871;28;20819;-74
2023/09/10 03:16:28;;;;;;;12.13;10.93;;;23.30;99.90;;;;;;5037869;28;20430;-74
2023/09/10 03:18:54;;;;;;;12.20;11.00;;;23.30;99.90;;;;;;5012210;28;20192;-74
2023/09/10 03:21:21;;;;;;;13.23;11.97;;;23.30;99.90;;;;;;5016791;28;20256;-74
2023/09/10 03:23:47;;;;;;;11.63;10.50;;;23.30;99.90;;;;;;5017665;28;20177;-74
2023/09/10 03:26:12;;;;;;;13.13;11.87;;;23.20;99.90;;;;;;5026003;28;21189;-74
2023/09/10 03:28:38;;;;;;;12.03;10.80;;;23.20;99.90;;;;;;5008551;28;20279;-75
2023/09/10 03:31:04;;;;;;;12.53;11.43;;;23.20;99.90;;;;;;5034813;28;20252;-75
2023/09/10 03:33:32;;;;;;;13.70;11.40;;;23.20;99.90;;;;;;5021095;28;20560;-75
2023/09/10 03:35:58;;;;;;;12.70;11.50;;;23.20;99.90;;;;;;5022041;28;20427;-74
2023/09/10 03:38:24;;;;;;;12.17;10.97;;;23.20;99.90;;;;;;5026123;28;20454;-75
2023/09/10 03:40:49;;;;;;;11.97;10.20;;;23.10;99.90;;;;;;5021405;28;20260;-74
2023/09/10 03:43:16;;;;;;;13.47;12.07;;;23.10;99.90;;;;;;5023493;28;20470;-75
2023/09/10 03:45:41;;;;;;;13.30;11.50;;;23.10;99.90;;;;;;5026273;28;20185;-75
2023/09/10 03:48:07;;;;;;;12.00;10.77;;;23.10;99.90;;;;;;5020125;28;20436;-75
2023/09/10 03:50:32;;;;;;;11.67;10.43;;;23.00;99.90;;;;;;5019138;28;20689;-75
2023/09/10 03:52:58;;;;;;;11.83;10.73;;;23.00;99.90;;;;;;5003873;28;20216;-74
2023/09/10 03:55:24;;;;;;;11.13;10.03;;;23.00;99.90;;;;;;5006368;28;20268;-74
2023/09/10 03:57:49;;;;;;;13.07;11.10;;;22.90;99.90;;;;;;5019012;28;20654;-75
2023/09/10 04:00:15;;;;;;;13.60;11.40;;;22.90;99.90;;;;;;5020993;28;20749;-75
2023/09/10 04:02:41;;;;;;;11.93;10.83;;;22.90;99.90;;;;;;5017549;28;20657;-75
2023/09/10 04:05:09;;;;;;;12.97;11.67;;;22.90;99.90;;;;;;5019163;28;20204;-75
2023/09/10 04:07:35;;;;;;;12.10;11.00;;;22.80;99.90;;;;;;5024588;28;21012;-75
2023/09/10 04:10:00;;;;;;;13.40;11.93;;;22.80;99.90;;;;;;5024106;28;20467;-75
2023/09/10 04:12:26;;;;;;;12.23;11.03;;;22.70;99.90;;;;;;5022069;28;20821;-75
2023/09/10 04:14:51;;;;;;;16.00;11.60;;;22.70;99.90;;;;;;5024628;28;20219;-74
2023/09/10 04:17:17;;;;;;;12.50;11.23;;;22.70;99.90;;;;;;5021530;28;20177;-74
2023/09/10 04:19:43;;;;;;;12.70;11.50;;;22.70;99.90;;;;;;5022123;28;20177;-74
2023/09/10 04:22:09;;;;;;;13.93;11.07;;;22.70;99.90;;;;;;5019561;28;20669;-74
2023/09/10 04:24:35;;;;;;;12.77;11.37;;;22.70;99.90;;;;;;5019414;28;20549;-74
2023/09/10 04:27:01;;;;;;;12.60;11.33;;;22.60;99.90;;;;;;5022811;28;20624;-74
2023/09/10 04:29:27;;;;;;;13.20;11.77;;;22.60;99.90;;;;;;5024854;28;20188;-74
2023/09/10 04:31:53;;;;;;;12.47;11.30;;;22.60;99.90;;;;;;5019611;28;20452;-74
2023/09/10 04:34:18;;;;;;;13.83;12.40;;;22.60;99.90;;;;;;5023508;28;20539;-74
2023/09/10 04:36:44;;;;;;;13.73;12.43;;;22.60;99.90;;;;;;5024557;28;20191;-74
2023/09/10 04:39:09;;;;;;;12.87;11.43;;;22.50;99.90;;;;;;5029780;28;20589;-74
2023/09/10 04:41:36;;;;;;;15.23;11.20;;;22.50;99.90;;;;;;5024624;28;20230;-74
2023/09/10 04:44:02;;;;;;;18.57;11.10;;;22.50;99.90;;;;;;5025939;28;20204;-74
2023/09/10 04:46:29;;;;;;;12.87;11.63;;;22.50;99.90;;;;;;5029594;28;21450;-74
2023/09/10 04:48:55;;;;;;;13.70;12.30;;;22.40;99.90;;;;;;5025269;28;20430;-74
2023/09/10 04:51:21;;;;;;;13.97;12.50;;;22.40;99.90;;;;;;5022471;28;20462;-74
2023/09/10 04:53:47;;;;;;;13.67;12.13;;;22.30;99.90;;;;;;5019667;28;20432;-74
2023/09/10 04:56:12;;;;;;;12.50;11.30;;;22.30;99.90;;;;;;5023845;28;20196;-74
2023/09/10 04:58:38;;;;;;;12.97;11.77;;;22.30;99.90;;;;;;5022927;28;20657;-74
2023/09/10 05:01:03;;;;;;;12.23;11.13;;;22.20;99.90;;;;;;5026900;28;20267;-74
2023/09/10 05:03:29;;;;;;;13.40;11.43;;;22.20;99.90;;;;;;5019637;28;20207;-74
2023/09/10 05:06:02;;;;;;;12.00;10.70;;;22.20;99.90;;;;;;5024381;28;20219;-75
2023/09/10 05:08:28;;;;;;;13.30;12.10;;;22.20;99.90;;;;;;5026315;28;20818;-74
2023/09/10 05:10:54;;;;;;;14.50;11.83;;;22.10;99.90;;;;;;5022416;28;20476;-75
2023/09/10 05:13:20;;;;;;;12.87;11.60;;;22.10;99.90;;;;;;5019904;28;20213;-74
2023/09/10 05:15:46;;;;;;;13.30;11.90;;;22.10;99.90;;;;;;5017258;28;20451;-74
2023/09/10 05:18:12;;;;;;;14.23;12.87;;;22.10;99.90;;;;;;5022858;28;20216;-74
2023/09/10 05:20:38;;;;;;;14.80;11.93;;;22.10;99.90;;;;;;5021479;28;20901;-74
2023/09/10 05:23:03;;;;;;;13.47;12.00;;;22.00;99.90;;;;;;5024159;28;20205;-74
2023/09/10 05:25:29;;;;;;;13.20;11.77;;;22.00;99.90;;;;;;5010000;28;20180;-74
2023/09/10 05:27:54;;;;;;;13.47;12.17;;;22.00;99.90;;;;;;5023753;28;20220;-74
2023/09/10 05:30:20;;;;;;;12.43;11.30;;;22.00;99.90;;;;;;5019307;28;20237;-75
2023/09/10 05:32:45;;;;;;;14.20;12.77;;;22.00;99.90;;;;;;5021351;28;20274;-74
2023/09/10 05:35:11;;;;;;;12.83;11.53;;;22.00;99.90;;;;;;5020946;28;20224;-74
2023/09/10 05:37:37;;;;;;;14.70;12.83;;;22.00;99.90;;;;;;5028352;28;20180;-74
2023/09/10 05:40:03;;;;;;;13.27;12.07;;;22.00;99.90;;;;;;5028862;28;20442;-74
2023/09/10 05:42:29;;;;;;;14.33;11.90;;;22.00;99.90;;;;;;5025967;28;20677;-75
2023/09/10 05:44:54;;;;;;;12.67;11.47;;;22.00;99.90;;;;;;5024566;28;20426;-75
2023/09/10 05:47:20;;;;;;;13.20;11.70;;;22.00;99.90;;;;;;5026639;28;20622;-75
2023/09/10 05:49:47;;;;;;;12.93;11.70;;;22.00;99.90;;;;;;5026086;28;20216;-75
2023/09/10 05:52:13;;;;;;;13.77;12.33;;;21.90;99.90;;;;;;5024215;28;20223;-74
2023/09/10 05:54:39;;;;;;;13.17;11.97;;;22.00;99.90;;;;;;5023176;28;20916;-75
2023/09/10 05:57:04;;;;;;;12.80;11.47;;;21.90;99.90;;;;;;5023618;28;20426;-74
2023/09/10 05:59:30;;;;;;;12.27;11.17;;;21.90;99.90;;;;;;5019029;28;20755;-75
2023/09/10 06:01:55;;;;;;;12.77;11.47;;;21.90;99.90;;;;;;5023425;28;20323;-75
2023/09/10 06:04:21;;;;;;;12.80;11.60;;;21.90;99.90;;;;;;5021603;28;20271;-75
2023/09/10 06:06:47;;;;;;;13.23;11.93;;;22.00;99.90;;;;;;5023573;28;20276;-75
2023/09/10 06:09:12;;;;;;;12.50;11.40;;;22.00;99.90;;;;;;5018040;28;20204;-75
2023/09/10 06:11:38;;;;;;;12.43;11.13;;;22.00;99.90;;;;;;5021222;28;20290;-75
2023/09/10 06:14:03;;;;;;;13.43;11.70;;;21.90;99.90;;;;;;5020406;28;20185;-75
2023/09/10 06:16:29;;;;;;;12.97;11.53;;;22.00;99.90;;;;;;5030514;28;20243;-75
2023/09/10 06:18:54;;;;;;;11.90;10.67;;;22.00;99.90;;;;;;5022054;28;20346;-75
2023/09/10 06:21:20;;;;;;;12.20;11.10;;;22.00;99.90;;;;;;5027882;28;20193;-74
2023/09/10 06:23:45;;;;;;;12.17;11.07;;;22.00;99.90;;;;;;5014926;28;20189;-75
2023/09/10 06:26:12;;;;;;;14.03;10.27;;;22.10;99.90;;;;;;5018868;28;20677;-75
2023/09/10 06:28:38;;;;;;;12.63;11.43;;;22.10;99.90;;;;;;5022376;28;20185;-75
2023/09/10 06:31:06;;;;;;;15.57;11.73;;;22.10;99.90;;;;;;5005849;28;20478;-75
2023/09/10 06:33:33;;;;;;;12.83;11.50;;;22.10;99.90;;;;;;5020237;28;20211;-74
2023/09/10 06:35:59;;;;;;;14.57;13.07;;;22.20;99.90;;;;;;5026328;28;20426;-75
2023/09/10 06:38:24;;;;;;;13.27;11.97;;;22.20;99.90;;;;;;5025413;28;20449;-75
2023/09/10 06:40:51;;;;;;;12.20;11.00;;;22.20;99.90;;;;;;5025384;28;20507;-75
2023/09/10 06:43:16;;;;;;;12.63;11.47;;;22.30;99.90;;;;;;5024919;28;20518;-75
2023/09/10 06:45:43;;;;;;;11.53;10.43;;;22.30;99.90;;;;;;5025651;28;20430;-75
2023/09/10 06:48:09;;;;;;;12.53;11.20;;;22.30;99.90;;;;;;5022468;28;20654;-74
2023/09/10 06:50:35;;;;;;;13.60;12.23;;;22.30;99.90;;;;;;5023559;28;20506;-74
2023/09/10 06:53:01;;;;;;;12.83;11.17;;;22.40;99.90;;;;;;5024742;28;20243;-75
2023/09/10 06:55:26;;;;;;;13.50;12.10;;;22.40;99.90;;;;;;5024083;28;20427;-74
2023/09/10 06:57:52;;;;;;;12.23;10.93;;;22.40;99.90;;;;;;5025842;28;20175;-75
2023/09/10 07:00:18;;;;;;;11.90;10.73;;;22.40;99.90;;;;;;5019408;28;20262;-75
2023/09/10 07:02:44;;;;;;;12.30;11.10;;;22.40;99.90;;;;;;5022200;28;20662;-75
2023/09/10 07:05:09;;;;;;;11.50;10.30;;;22.40;99.90;;;;;;5007893;28;20545;-75
2023/09/10 07:07:35;;;;;;;12.10;10.87;;;22.50;99.90;;;;;;5035303;28;20200;-75
2023/09/10 07:10:01;;;;;;;13.30;10.97;;;22.50;99.90;;;;;;5007674;28;20219;-75
2023/09/10 07:12:27;;;;;;;12.17;10.97;;;22.60;99.90;;;;;;5021103;28;20479;-75
2023/09/10 07:14:52;;;;;;;12.40;11.10;;;22.60;99.90;;;;;;5021385;28;20928;-75
2023/09/10 07:17:18;;;;;;;13.00;11.40;;;22.70;99.90;;;;;;5020053;28;20275;-75
2023/09/10 07:19:43;;;;;;;11.73;10.53;;;22.70;99.90;;;;;;5025265;28;20212;-75
2023/09/10 07:22:09;;;;;;;12.77;11.57;;;22.70;99.90;;;;;;5023972;28;20216;-75
2023/09/10 07:24:35;;;;;;;12.37;11.10;;;22.80;99.90;;;;;;5023260;28;20510;-75
2023/09/10 07:27:01;;;;;;;11.40;10.27;;;22.80;99.90;;;;;;5017651;28;20276;-75
2023/09/10 07:29:27;;;;;;;12.00;10.80;;;22.90;99.90;;;;;;5023552;28;20244;-75
2023/09/10 07:31:53;;;;;;;13.87;10.70;;;22.90;99.90;;;;;;5019583;28;20447;-75
2023/09/10 07:34:20;;;;;;;12.27;10.93;;;22.90;99.90;;;;;;5021727;28;20445;-75
2023/09/10 07:36:46;;;;;;;12.60;11.30;;;23.00;99.90;;;;;;5016389;28;20434;-75
2023/09/10 07:39:12;;;;;;;12.30;11.20;;;23.10;99.90;;;;;;5021124;28;20438;-76
2023/09/10 07:41:37;;;;;;;12.60;11.30;;;23.10;99.90;;;;;;5020394;28;20200;-75
2023/09/10 07:44:03;;;;;;;11.80;10.70;;;23.20;99.90;;;;;;5008334;28;20468;-75
2023/09/10 07:46:29;;;;;;;15.10;11.57;;;23.20;99.90;;;;;;5020842;28;20193;-75
2023/09/10 07:48:55;;;;;;;12.47;11.20;;;23.30;99.90;;;;;;5021422;28;20732;-75
2023/09/10 07:51:21;;;;;;;12.13;10.93;;;23.30;99.90;;;;;;5023935;28;20570;-75
2023/09/10 07:53:47;;;;;;;12.73;11.53;;;23.30;99.90;;;;;;5025393;28;20240;-73
2023/09/10 07:56:12;;;;;;;13.20;11.80;;;23.30;99.90;;;;;;5023111;28;20477;-74
2023/09/10 07:58:38;;;;;;;13.17;11.63;;;23.40;99.90;;;;;;5039118;28;20210;-74
2023/09/10 08:01:04;;;;;;;12.20;11.10;;;23.50;99.90;;;;;;5023227;28;20275;-74
2023/09/10 08:03:29;;;;;;;14.10;12.80;;;23.50;99.90;;;;;;5021428;28;20708;-74
2023/09/10 08:05:55;;;;;;;12.73;11.50;;;23.50;99.90;;;;;;5021632;28;20197;-74
2023/09/10 08:08:21;;;;;;;12.80;11.00;;;23.50;99.90;;;;;;5009059;28;20592;-74
2023/09/10 08:10:47;;;;;;;13.70;12.33;;;23.60;99.90;;;;;;5024776;28;20654;-74
2023/09/10 08:13:13;;;;;;;12.53;11.43;;;23.70;99.90;;;;;;5004388;28;20762;-74
2023/09/10 08:15:40;;;;;;;13.03;11.13;;;23.70;99.90;;;;;;5024040;28;20187;-74
2023/09/10 08:18:10;;;;;;;13.13;11.70;;;23.80;99.90;;;;;;5023625;28;20454;-74
2023/09/10 08:20:39;;;;;;;12.20;11.10;;;23.80;99.90;;;;;;5027636;28;20465;-75
2023/09/10 08:23:05;;;;;;;11.87;10.63;;;23.90;99.90;;;;;;5027227;28;20549;-75
2023/09/10 08:25:32;;;;;;;12.10;10.90;;;23.90;99.90;;;;;;5026130;28;20423;-75
2023/09/10 08:27:58;;;;;;;12.10;11.00;;;24.00;99.90;;;;;;5025164;28;20516;-74
2023/09/10 08:30:26;;;;;;;12.90;11.10;;;24.10;99.90;;;;;;5011613;28;20964;-74
2023/09/10 08:32:51;;;;;;;12.37;10.20;;;24.10;99.90;;;;;;5017437;28;20569;-75
2023/09/10 08:35:23;;;;;;;11.70;10.53;;;24.20;99.90;;;;;;5025189;28;20510;-74
2023/09/10 08:37:48;;;;;;;12.87;11.33;;;24.30;99.90;;;;;;5027410;28;20188;-75
2023/09/10 08:40:16;;;;;;;12.40;11.20;;;24.40;99.90;;;;;;5011735;28;20423;-75
2023/09/10 08:43:01;;;;;;;11.67;10.63;;;24.40;99.90;;;;;;5027616;28;20212;-75
2023/09/10 08:45:27;;;;;;;13.20;12.00;;;24.40;99.90;;;;;;5026756;28;20565;-75
2023/09/10 08:47:57;;;;;;;12.17;10.90;;;24.50;99.90;;;;;;5020567;28;20514;-75
2023/09/10 08:50:23;;;;;;;14.10;12.33;;;24.50;99.90;;;;;;5026996;28;20211;-74
2023/09/10 08:52:50;;;;;;;14.23;12.00;;;24.60;99.90;;;;;;5024253;28;20497;-76
2023/09/10 08:55:16;;;;;;;12.07;10.60;;;24.70;99.90;;;;;;5025635;28;20473;-73
2023/09/10 08:57:44;;;;;;;11.50;10.43;;;24.70;99.90;;;;;;5021511;28;20428;-74
2023/09/10 09:00:12;;;;;;;12.83;11.60;;;24.80;99.90;;;;;;5024287;28;20188;-74
2023/09/10 09:02:43;;;;;;;16.27;11.43;;;24.90;99.90;;;;;;5018432;28;20708;-74
2023/09/10 09:05:09;;;;;;;12.30;11.00;;;24.90;99.90;;;;;;5023050;28;20443;-74
2023/09/10 09:07:55;;;;;;;14.50;10.43;;;24.90;99.90;;;;;;5026893;28;20454;-74
2023/09/10 09:10:26;;;;;;;11.53;10.37;;;25.00;99.90;;;;;;5023594;28;20467;-74
2023/09/10 09:12:56;;;;;;;11.70;10.50;;;25.10;99.90;;;;;;5026868;28;20482;-75
2023/09/10 09:15:33;;;;;;;11.67;10.47;;;25.20;99.90;;;;;;5012247;28;20427;-75
2023/09/10 09:18:11;;;;;;;11.53;10.30;;;25.20;99.90;;;;;;5028368;28;20476;-74
2023/09/10 09:20:39;;;;;;;11.80;10.70;;;25.30;99.90;;;;;;5032062;28;20431;-74
2023/09/10 09:23:25;;;;;;;12.23;9.73;;;25.30;99.90;;;;;;5031865;28;20462;-76
2023/09/10 09:25:52;;;;;;;11.77;10.53;;;25.40;99.90;;;;;;5022520;28;20427;-74
2023/09/10 09:28:19;;;;;;;10.70;9.70;;;25.50;99.90;;;;;;5025167;28;20447;-74
2023/09/10 09:30:45;;;;;;;10.57;9.53;;;25.50;99.90;;;;;;5024613;28;21022;-75
2023/09/10 09:33:10;;;;;;;10.83;9.60;;;25.60;99.90;;;;;;5022174;28;20631;-75
2023/09/10 09:35:36;;;;;;;11.30;10.07;;;25.60;99.90;;;;;;5013090;28;20176;-75
2023/09/10 09:38:09;;;;;;;9.70;8.83;;;25.70;99.90;;;;;;5025706;28;20673;-75
2023/09/10 09:40:35;;;;;;;9.47;8.63;;;25.80;99.90;;;;;;5022453;28;20181;-75
2023/09/10 09:43:01;;;;;;;9.97;9.07;;;26.00;99.90;;;;;;5023018;28;20514;-75
2023/09/10 09:45:27;;;;;;;9.50;8.57;;;26.00;99.90;;;;;;5028292;28;20423;-75
2023/09/10 09:47:53;;;;;;;9.80;8.90;;;26.10;99.90;;;;;;5024414;28;20443;-75
2023/09/10 09:50:20;;;;;;;11.40;9.83;;;26.20;99.90;;;;;;5023623;28;20624;-75
2023/09/10 09:52:52;;;;;;;9.70;8.80;;;26.20;99.90;;;;;;5020745;28;20432;-75
2023/09/10 09:55:17;;;;;;;9.80;8.80;;;26.30;99.90;;;;;;5012672;28;20431;-75
2023/09/10 09:57:46;;;;;;;9.10;8.30;;;26.40;99.90;;;;;;5018042;28;20494;-75
2023/09/10 10:00:12;;;;;;;9.67;8.77;;;26.40;99.90;;;;;;5021610;28;20180;-75
2023/09/10 10:02:38;;;;;;;9.97;9.10;;;26.50;99.90;;;;;;5010886;28;20450;-74
2023/09/10 10:05:04;;;;;;;9.73;8.83;;;26.60;99.90;;;;;;5022467;28;20427;-75
2023/09/10 10:07:36;;;;;;;9.93;8.90;;;26.60;99.90;;;;;;5021690;28;20603;-74
2023/09/10 10:10:06;;;;;;;9.40;8.60;;;26.60;99.90;;;;;;5015944;28;20462;-75
2023/09/10 10:12:32;;;;;;;13.57;9.07;;;26.70;99.90;;;;;;5023113;28;20443;-75
2023/09/10 10:14:59;;;;;;;10.37;9.37;;;26.80;99.90;;;;;;5025018;28;20436;-74
2023/09/10 10:17:26;;;;;;;9.13;8.23;;;26.90;99.90;;;;;;5021248;28;21125;-75
2023/09/10 10:19:52;;;;;;;10.43;9.43;;;26.90;99.90;;;;;;5023837;28;20431;-75
2023/09/10 10:22:21;;;;;;;8.70;7.90;;;27.00;99.90;;;;;;5024492;28;20451;-75
2023/09/10 10:24:48;;;;;;;9.40;8.57;;;27.10;99.90;;;;;;5024488;28;20568;-75
2023/09/10 10:27:14;;;;;;;9.43;8.53;;;27.10;99.90;;;;;;5017439;28;21122;-75
2023/09/10 10:29:40;;;;;;;8.87;8.07;;;27.30;99.90;;;;;;5023686;28;20851;-75
2023/09/10 10:32:27;;;;;;;11.07;8.60;;;27.30;99.90;;;;;;5004697;28;20582;-75
2023/09/10 10:34:59;;;;;;;9.00;8.20;;;27.40;99.90;;;;;;5023547;28;20199;-75
2023/09/10 10:37:50;;;;;;;8.70;7.80;;;27.40;99.90;;;;;;5022721;28;20423;-75
2023/09/10 10:40:28;;;;;;;8.90;8.00;;;27.50;99.90;;;;;;5025435;28;20420;-74
2023/09/10 10:43:07;;;;;;;8.60;7.80;;;27.60;99.90;;;;;;5025088;28;20479;-75
2023/09/10 10:45:33;;;;;;;9.30;7.87;;;27.70;99.90;;;;;;5026693;28;20986;-75
2023/09/10 10:48:03;;;;;;;9.10;8.23;;;27.70;99.90;;;;;;5024142;28;20538;-75
2023/09/10 10:50:34;;;;;;;9.70;8.50;;;27.80;99.90;;;;;;5025190;28;20466;-75
2023/09/10 10:53:11;;;;;;;8.53;7.60;;;27.80;99.90;;;;;;5025987;28;20470;-75
2023/09/10 10:55:37;;;;;;;8.57;7.70;;;28.00;99.90;;;;;;5008166;28;20426;-75
2023/09/10 10:58:03;;;;;;;9.70;8.70;;;28.00;99.90;;;;;;5026368;28;20407;-75
2023/09/10 11:00:29;;;;;;;8.60;7.70;;;28.10;99.90;;;;;;5022739;28;20426;-75
2023/09/10 11:03:13;;;;;;;6.80;6.20;;;28.20;99.90;;;;;;5004932;28;20235;-75
2023/09/10 11:05:55;;;;;;;9.50;7.40;;;28.20;99.90;;;;;;5019978;28;20537;-74
2023/09/10 11:08:24;;;;;;;8.50;7.60;;;28.30;99.90;;;;;;5020537;28;20477;-75
2023/09/10 11:10:49;;;;;;;7.37;6.73;;;28.40;99.90;;;;;;5024990;28;20521;-74
2023/09/10 11:13:16;;;;;;;7.67;7.07;;;28.50;99.90;;;;;;5019169;28;20570;-74
2023/09/10 11:16:04;;;;;;;7.90;7.20;;;28.50;99.90;;;;;;5023748;28;20490;-74
2023/09/10 11:18:39;;;;;;;8.27;7.57;;;28.60;99.90;;;;;;5018959;28;20630;-74
2023/09/10 11:21:05;;;;;;;8.40;7.30;;;28.60;99.90;;;;;;5019075;28;20485;-74
2023/09/10 11:23:32;;;;;;;10.73;7.03;;;28.70;99.90;;;;;;5020733;28;20480;-74
2023/09/10 11:26:13;;;;;;;7.33;6.30;;;28.80;99.90;;;;;;5002783;28;20433;-74
2023/09/10 11:28:52;;;;;;;9.33;6.43;;;28.90;99.90;;;;;;5016113;28;20442;-74
2023/09/10 11:31:38;;;;;;;7.93;6.60;;;28.90;99.90;;;;;;5018272;28;20459;-75
2023/09/10 11:34:16;;;;;;;;;;;;;;;;;;;;;
2023/09/10 11:36:46;;;;;;;8.17;6.13;;;29.10;98.70;;;;;;5021667;28;20442;-74
2023/09/10 11:39:14;;;;;;;7.83;6.13;;;29.20;97.30;;;;;;5023432;28;20403;-74
2023/09/10 11:41:44;;;;;;;7.67;6.87;;;29.30;97.30;;;;;;5020723;28;20971;-74
2023/09/10 11:44:10;;;;;;;9.47;6.63;;;29.40;97.40;;;;;;5016175;28;20470;-74
2023/09/10 11:46:37;;;;;;;7.50;6.80;;;29.50;97.50;;;;;;5025515;28;20447;-74
2023/09/10 11:49:02;;;;;;;6.93;6.33;;;29.70;96.90;;;;;;5038225;28;20627;-74
2023/09/10 11:51:28;;;;;;;6.63;5.93;;;29.80;96.50;;;;;;5025202;28;20550;-74
2023/09/10 11:53:54;;;;;;;7.17;6.47;;;29.90;95.10;;;;;;5020438;28;20208;-75
2023/09/10 11:56:20;;;;;;;7.33;6.63;;;30.10;95.10;;;;;;5026769;28;20192;-74
2023/09/10 11:58:45;;;;;;;8.13;6.53;;;30.30;93.30;;;;;;5026480;28;20187;-74
2023/09/10 12:01:11;;;;;;;12.17;6.40;;;30.60;93.50;;;;;;5025845;28;20558;-74
2023/09/10 12:03:41;;;;;;;7.00;5.67;;;31.00;93.40;;;;;;5029021;28;20250;-74
2023/09/10 12:06:07;;;;;;;8.47;7.07;;;31.50;90.70;;;;;;5027684;28;20272;-74
2023/09/10 12:08:32;;;;;;;7.80;7.00;;;32.00;90.00;;;;;;5027678;28;20534;-75
2023/09/10 12:11:03;;;;;;;8.40;7.30;;;32.40;89.60;;;;;;5011058;28;20283;-74
2023/09/10 12:13:29;;;;;;;6.90;6.20;;;32.90;88.60;;;;;;5025586;28;20204;-74
2023/09/10 12:15:55;;;;;;;7.23;6.30;;;33.30;84.80;;;;;;5026440;28;20800;-74
2023/09/10 12:18:22;;;;;;;7.87;5.83;;;33.50;79.20;;;;;;5026928;28;20481;-74
2023/09/10 12:20:48;;;;;;;6.73;5.83;;;33.80;78.20;;;;;;5023317;28;20183;-74
2023/09/10 12:23:14;;;;;;;6.57;5.97;;;34.10;76.60;;;;;;5007860;28;20458;-74
2023/09/10 12:25:40;;;;;;;10.60;6.63;;;34.40;75.10;;;;;;5010484;28;20427;-74
2023/09/10 12:28:09;;;;;;;6.90;6.20;;;34.70;74.80;;;;;;5023874;28;20816;-74
2023/09/10 12:30:35;;;;;;;6.47;5.80;;;34.90;71.40;;;;;;5009394;28;20232;-74
2023/09/10 12:33:02;;;;;;;6.50;5.90;;;35.10;67.90;;;;;;5009796;28;20473;-74
2023/09/10 12:35:28;;;;;;;7.00;5.80;;;35.30;64.20;;;;;;5025189;28;20480;-75